• Join FlightAware (Why Join?)
  • Login
  • US Flag 
05:03AM EDT


 

Airport Tracker/Info


-or-


 

Live Flight TrackerFlight Track Log ✈ FFT975 ✈ 13-Nov-2013 ✈ KTTN - KFLL

Flight Track Log - Related Links

Times and Time Zones

All times are in EST time to prevent confusion due to time zone crossing. See the FFT975 flight status page for this flight to view local times or setup timezone preferences in your user account.

Time Position Orientation Groundspeed Altitude Reporting Facility
EST Latitude Longitude Course Direction KTS MPH feet Rate Location/Type
09:41AM 40.2300 -74.8740 224° Southwest 214 246 2,200  Level FlightAware
09:41AM 40.2030 -74.8960 212° Southwest 261 300 3,100 2,460 Climbing FlightAware
09:42AM 40.1580 -74.9280 209° Southwest 285 328 5,000 2,700 Climbing FlightAware
09:42AM 40.1200 -74.9550 209° Southwest 279 321 6,400 1,380 Climbing FlightAware
09:43AM 40.0810 -74.9840 210° Southwest 281 323 6,600 780 Climbing FlightAware
09:44AM 40.0460 -75.0090 209° Southwest 285 328 7,300 2,100 Climbing FlightAware
09:44AM 40.0000 -75.0420 209° Southwest 298 343 9,100 1,500 Climbing FlightAware
09:45AM 39.9410 -75.0840 209° Southwest 303 349 9,500 600 Climbing FlightAware
09:46AM 39.8720 -75.1220 203° Southwest 319 367 10,100 900 Climbing FlightAware
09:46AM 39.8260 -75.1480 203° Southwest 355 409 10,800 900 Climbing FlightAware
09:47AM 39.7300 -75.2010 203° Southwest 378 435 11,500 420 Climbing FlightAware
09:48AM 39.6720 -75.2330 203° Southwest 380 437 11,500 420 Level FlightAware
09:49AM 39.6080 -75.2690 203° Southwest 385 443 12,100 1,320 Climbing FlightAware
09:49AM 39.5390 -75.3070 203° Southwest 404 465 13,400 2,220 Climbing FlightAware
09:50AM 39.4870 -75.3290 198° South 412 474 14,700 1,680 Climbing FlightAware
09:51AM 39.3990 -75.3460 188° South 428 493 15,500 480 Climbing FlightAware
09:51AM 39.2970 -75.3640 188° South 428 493 15,500  Level FlightAware
09:52AM 39.2120 -75.3790 188° South 427 491 15,500  Level FlightAware
09:53AM 39.1510 -75.3890 187° South 426 490 15,500  Level FlightAware
09:53AM 39.0780 -75.4000 187° South 426 490 15,500  Level FlightAware
09:54AM 39.0030 -75.4110 187° South 432 497 15,500  Level FlightAware
09:55AM 38.9270 -75.4230 187° South 433 498 15,500 420 Level FlightAware
09:55AM 38.8620 -75.4330 187° South 435 501 16,000 1,380 Climbing FlightAware
09:56AM 38.7880 -75.4440 187° South 447 514 17,000 1,800 Climbing FlightAware
09:56AM 38.7170 -75.4550 187° South 455 524 18,100 1,560 Climbing FlightAware
09:57AM 38.6100 -75.4710 187° South 471 542 19,300 1,500 Climbing FlightAware
09:58AM 38.4940 -75.4880 187° South 472 543 20,800 1,560 Climbing FlightAware
09:59AM 38.4040 -75.5020 187° South 482 555 21,900 1,500 Climbing FlightAware
09:59AM 38.3210 -75.5340 197° South 479 551 22,800 1,320 Climbing FlightAware
10:00AM 38.2480 -75.6020 216° Southwest 483 556 23,600 1,080 Climbing FlightAware
10:01AM 38.1650 -75.6800 216° Southwest 500 575 24,400 1,260 Climbing FlightAware
10:01AM 38.0950 -75.7460 217° Southwest 504 580 25,400 1,800 Climbing FlightAware
10:02AM 37.9990 -75.8360 216° Southwest 484 557 27,100 1,620 Climbing FlightAware
10:03AM 37.9330 -75.8980 217° Southwest 488 562 27,800 600 Climbing FlightAware
10:04AM 37.8490 -75.9750 216° Southwest 479 551 28,000 120 Climbing FlightAware
10:04AM 37.7960 -76.0260 217° Southwest 484 557 28,000  Level FlightAware
10:05AM 37.7420 -76.0760 216° Southwest 483 556 28,000  Level FlightAware
10:05AM 37.6770 -76.1360 216° Southwest 481 554 28,000  Level FlightAware
10:06AM 37.6070 -76.2010 216° Southwest 481 554 28,000  Level FlightAware
10:06AM 37.5640 -76.2400 216° Southwest 480 552 28,000  Level FlightAware
10:07AM 37.4900 -76.3080 216° Southwest 477 549 28,000  Level FlightAware
10:07AM 37.4310 -76.3620 216° Southwest 475 547 28,000  Level FlightAware
10:08AM 37.3210 -76.4630 216° Southwest 474 545 28,000  Level FlightAware
10:09AM 37.2580 -76.5210 216° Southwest 473 544 28,000  Level FlightAware
10:10AM 37.1760 -76.5950 216° Southwest 472 543 28,000  Level FlightAware
10:10AM 37.1140 -76.6510 216° Southwest 469 540 28,000  Level FlightAware
10:11AM 37.1000 -76.6640 217° Southwest 468 539 28,000 1,260 Level FlightAware
10:12AM 36.9850 -76.7550 212° Southwest 459 528 29,600 1,080 Climbing FlightAware
10:12AM 36.8960 -76.8000 202° Southwest 448 516 30,000 240 Climbing FlightAware
10:13AM 36.8190 -76.8390 202° Southwest 449 517 30,000 600 Level FlightAware
10:14AM 36.7550 -76.8720 202° Southwest 435 501 30,800 1,560 Climbing FlightAware
10:14AM 36.7280 -76.8850 201° Southwest 432 497 31,300 420 Climbing FlightAware
10:15AM 36.6490 -76.9250 202° Southwest 432 497 31,300  Level FlightAware
10:16AM 36.5740 -76.9630 202° Southwest 432 497 31,300 420 Level FlightAware
10:16AM 36.4500 -77.0250 202° Southwest 447 514 32,000 480 Climbing FlightAware
10:17AM 36.3810 -77.0600 202° Southwest 439 505 32,000  Level FlightAware
10:17AM 36.3160 -77.0920 202° Southwest 436 502 32,000  Level FlightAware
10:18AM 36.2500 -77.1250 202° Southwest 433 498 32,000  Level FlightAware
10:18AM 36.2020 -77.1490 202° Southwest 432 497 32,000  Level FlightAware
10:19AM 36.1270 -77.1870 202° Southwest 432 497 32,000  Level FlightAware
10:20AM 36.0610 -77.2190 201° Southwest 434 499 32,000  Level FlightAware
10:20AM 35.9840 -77.2570 202° Southwest 435 501 32,000  Level FlightAware
10:21AM 35.9090 -77.2950 202° Southwest 438 504 32,000  Level FlightAware
10:22AM 35.8230 -77.3370 202° Southwest 446 513 32,000  Level FlightAware
10:22AM 35.7920 -77.3520 201° Southwest 446 513 32,000  Level FlightAware
10:23AM 35.6920 -77.4030 203° Southwest 447 514 32,000  Level FlightAware
10:24AM 35.6120 -77.4700 214° Southwest 444 511 32,000  Level FlightAware
10:24AM 35.5470 -77.5340 219° Southwest 446 513 32,000  Level FlightAware
10:25AM 35.4840 -77.5960 219° Southwest 446 513 32,000  Level FlightAware
10:26AM 35.4380 -77.6410 219° Southwest 446 513 32,000  Level FlightAware
10:26AM 35.3770 -77.7010 219° Southwest 444 511 32,000  Level FlightAware
10:27AM 35.3080 -77.7680 218° Southwest 442 509 32,000  Level FlightAware
10:28AM 35.2430 -77.8310 218° Southwest 440 506 32,000  Level FlightAware
10:29AM 35.1410 -77.9300 218° Southwest 437 503 32,000  Level FlightAware
10:29AM 35.0890 -77.9810 219° Southwest 437 503 32,000  Level FlightAware
10:30AM 35.0350 -78.0340 219° Southwest 439 505 32,000  Level FlightAware
10:30AM 34.9610 -78.1050 218° Southwest 439 505 32,000  Level FlightAware
10:31AM 34.8650 -78.1980 218° Southwest 440 506 32,000  Level FlightAware
10:32AM 34.7770 -78.2820 218° Southwest 440 506 32,000  Level FlightAware
10:33AM 34.7060 -78.3500 218° Southwest 438 504 32,000  Level FlightAware
10:34AM 34.6090 -78.4430 218° Southwest 434 499 32,000  Level FlightAware
10:35AM 34.5110 -78.5360 218° Southwest 427 491 32,000  Level FlightAware
10:36AM 34.4050 -78.6370 218° Southwest 420 483 32,000  Level FlightAware
10:37AM 34.3580 -78.6820 218° Southwest 418 481 32,000  Level FlightAware
10:37AM 34.3070 -78.7300 218° Southwest 415 478 32,000  Level FlightAware
10:38AM 34.2380 -78.7950 218° Southwest 413 475 32,000  Level FlightAware
10:39AM 34.1800 -78.8500 218° Southwest 413 475 32,000  Level FlightAware
10:39AM 34.1280 -78.8990 218° Southwest 412 474 32,000  Level FlightAware
10:40AM 34.0620 -78.9610 218° Southwest 411 473 32,000  Level FlightAware
10:41AM 34.0080 -79.0110 218° Southwest 411 473 32,000  Level FlightAware
10:41AM 33.9470 -79.0690 218° Southwest 413 475 32,000  Level FlightAware
10:42AM 33.9030 -79.1100 218° Southwest 413 475 32,000  Level FlightAware
10:43AM 33.8260 -79.1810 217° Southwest 409 471 32,000  Level FlightAware
10:43AM 33.7840 -79.2210 218° Southwest 406 467 32,000  Level FlightAware
10:44AM 33.7300 -79.2710 218° Southwest 404 465 32,000  Level FlightAware
10:44AM 33.6820 -79.3160 218° Southwest 400 460 32,000  Level FlightAware
10:45AM 33.6310 -79.3630 218° Southwest 399 459 32,000  Level FlightAware
10:46AM 33.5740 -79.4150 217° Southwest 400 460 32,000  Level FlightAware
10:46AM 33.5040 -79.4800 218° Southwest 397 457 32,000  Level FlightAware
10:47AM 33.4580 -79.5220 217° Southwest 397 457 32,000  Level FlightAware
10:47AM 33.4110 -79.5660 218° Southwest 395 455 32,000  Level FlightAware
10:48AM 33.3630 -79.6090 217° Southwest 392 451 32,000  Level FlightAware
10:49AM 33.2940 -79.6730 218° Southwest 390 449 32,000  Level FlightAware
10:50AM 33.2270 -79.7350 218° Southwest 385 443 32,000  Level FlightAware
10:50AM 33.1870 -79.7710 217° Southwest 383 441 32,000  Level FlightAware
10:51AM 33.1220 -79.8310 218° Southwest 380 437 32,000  Level FlightAware
10:52AM 33.0330 -79.9110 217° Southwest 377 434 32,000  Level FlightAware
10:53AM 32.9780 -79.9620 218° Southwest 375 432 32,000  Level FlightAware
10:53AM 32.9390 -79.9970 217° Southwest 375 432 32,000  Level FlightAware
10:54AM 32.8950 -80.0370 217° Southwest 378 435 32,000  Level FlightAware
10:54AM 32.8370 -80.0800 212° Southwest 384 442 32,000  Level FlightAware
10:55AM 32.7890 -80.1150 212° Southwest 385 443 32,000  Level FlightAware
10:55AM 32.7440 -80.1490 212° Southwest 385 443 32,000  Level FlightAware
10:56AM 32.6760 -80.1990 212° Southwest 385 443 32,000  Level FlightAware
10:57AM 32.6160 -80.2430 212° Southwest 386 444 32,000  Level FlightAware
10:57AM 32.5780 -80.2710 212° Southwest 386 444 32,000  Level FlightAware
10:58AM 32.5170 -80.3160 212° Southwest 385 443 32,000  Level FlightAware
10:58AM 32.4530 -80.3630 212° Southwest 384 442 32,000  Level FlightAware
10:59AM 32.4040 -80.3980 211° Southwest 384 442 32,000  Level FlightAware
11:00AM 32.3380 -80.4470 212° Southwest 382 440 32,000  Level FlightAware
11:01AM 32.2430 -80.5160 212° Southwest 382 440 32,000  Level FlightAware
11:01AM 32.1910 -80.5540 212° Southwest 381 438 32,000  Level FlightAware
11:02AM 32.1340 -80.5950 211° Southwest 379 436 32,000  Level FlightAware
11:03AM 32.0790 -80.6350 212° Southwest 375 432 32,000  Level FlightAware
11:03AM 32.0280 -80.6720 212° Southwest 372 428 32,000  Level FlightAware
11:04AM 31.9450 -80.7320 212° Southwest 371 427 32,000  Level FlightAware
11:05AM 31.8950 -80.7680 211° Southwest 371 427 32,000  Level FlightAware
11:05AM 31.8470 -80.8030 212° Southwest 373 429 32,000  Level FlightAware
11:06AM 31.7830 -80.8490 211° Southwest 374 430 32,000  Level FlightAware
11:07AM 31.7270 -80.8890 211° Southwest 374 430 32,000  Level FlightAware
11:07AM 31.6810 -80.9220 211° Southwest 373 429 32,000  Level FlightAware
11:08AM 31.6300 -80.9580 211° Southwest 373 429 32,000  Level FlightAware
11:09AM 31.5440 -81.0200 212° Southwest 376 433 32,000  Level FlightAware
11:09AM 31.4850 -81.0590 209° Southwest 388 447 32,000  Level FlightAware
11:10AM 31.4260 -81.0730 191° South 423 487 32,000  Level FlightAware
11:10AM 31.3570 -81.0740 181° South 425 489 32,000  Level FlightAware
11:11AM 31.3020 -81.0750 181° South 424 488 32,000  Level FlightAware
11:12AM 31.1870 -81.0780 181° South 424 488 32,000  Level FlightAware
11:12AM 31.1180 -81.0790 181° South 424 488 32,000  Level FlightAware
11:13AM 31.0560 -81.0800 181° South 424 488 32,000  Level FlightAware
11:14AM 30.9140 -81.0830 181° South 425 489 32,000  Level FlightAware
11:15AM 30.8490 -81.0840 181° South 427 491 32,000  Level FlightAware
11:16AM 30.7320 -81.0860 181° South 427 491 32,000  Level FlightAware
11:17AM 30.5920 -81.0890 181° South 426 490 32,000  Level FlightAware
11:18AM 30.5180 -81.0900 181° South 424 488 32,000  Level FlightAware
11:18AM 30.4480 -81.0910 181° South 424 488 32,000  Level FlightAware
11:19AM 30.3650 -81.0720 169° South 465 535 32,000  Level FlightAware
11:19AM 30.3030 -81.0500 163° South 446 513 32,000  Level FlightAware
11:20AM 30.2350 -81.0490 179° South 421 484 32,000  Level FlightAware
11:21AM 30.1620 -81.0540 183° South 421 484 32,000  Level FlightAware
11:21AM 30.0970 -81.0580 183° South 422 486 32,000  Level FlightAware
11:22AM 30.0230 -81.0630 183° South 424 488 32,000  Level FlightAware
11:22AM 29.9490 -81.0680 183° South 426 490 32,000  Level FlightAware
11:23AM 29.8730 -81.0740 184° South 427 491 32,000  Level FlightAware
11:24AM 29.8060 -81.0670 175° South 459 528 32,000  Level FlightAware
11:24AM 29.7190 -81.0240 157° South 482 555 32,000  Level FlightAware
11:25AM 29.6450 -80.9810 153° Southeast 480 552 32,000  Level FlightAware
11:25AM 29.5740 -80.9410 154° Southeast 478 550 32,000  Level FlightAware
11:26AM 29.4650 -80.8780 153° Southeast 478 550 32,000  Level FlightAware
11:27AM 29.4040 -80.8440 154° Southeast 476 548 32,000  Level FlightAware
11:27AM 29.3450 -80.8100 153° Southeast 474 545 32,000  Level FlightAware
11:28AM 29.2550 -80.7590 154° Southeast 474 545 32,000  Level FlightAware
11:29AM 29.1630 -80.7060 153° Southeast 474 545 32,000  Level FlightAware
11:30AM 29.0940 -80.6680 154° Southeast 474 545 32,000  Level FlightAware
11:30AM 29.0410 -80.6370 153° Southeast 474 545 32,000  Level FlightAware
11:31AM 28.9560 -80.5930 156° South 475 547 32,000  Level FlightAware
11:31AM 28.9000 -80.5640 156° South 477 549 32,000  Level FlightAware
11:32AM 28.8020 -80.5160 157° South 479 551 32,000  Level FlightAware
11:33AM 28.6790 -80.4540 156° South 481 554 32,000  Level FlightAware
11:34AM 28.6130 -80.4200 156° South 480 552 32,000  Level FlightAware
11:34AM 28.5470 -80.3880 157° South 479 551 32,000  Level FlightAware
11:35AM 28.4190 -80.3230 156° South 474 545 32,000  Level FlightAware
11:36AM 28.3540 -80.2910 157° South 473 544 32,000  Level FlightAware
11:37AM 28.2240 -80.2270 157° South 472 543 32,000  Level FlightAware
11:37AM 28.1570 -80.1930 156° South 474 545 32,000  Level FlightAware
11:38AM 28.0840 -80.1570 156° South 475 547 32,000  Level FlightAware
11:38AM 28.0090 -80.1200 156° South 477 549 32,000  Level FlightAware
11:39AM 27.9520 -80.0920 157° South 478 550 32,000  Level FlightAware
11:39AM 27.8870 -80.0600 156° South 477 549 32,000  Level FlightAware
11:40AM 27.8230 -80.0280 156° South 478 550 32,000  Level FlightAware
11:41AM 27.7570 -79.9960 157° South 477 549 32,000 -180 Level FlightAware
11:41AM 27.6760 -79.9560 156° South 473 544 31,800 -960 Descending FlightAware
11:42AM 27.5260 -79.8930 160° South 462 532 30,200 -1,500 Descending FlightAware
11:43AM 27.4130 -79.8620 166° South 456 525 28,600 -2,340 Descending FlightAware
11:44AM 27.2730 -79.8240 166° South 444 511 25,500 -2,700 Descending FlightAware
11:45AM 27.2000 -79.8050 167° South 438 504 23,900 -2,640 Descending FlightAware
11:46AM 27.1270 -79.7850 166° South 430 495 22,300 -2,520 Descending FlightAware
11:46AM 27.0620 -79.7670 166° South 417 480 20,900 -2,400 Descending FlightAware
11:47AM 26.9980 -79.7500 167° South 408 470 19,600 -2,400 Descending FlightAware
11:47AM 26.9330 -79.7330 167° South 407 468 18,200 -2,220 Descending FlightAware
11:48AM 26.8620 -79.7140 167° South 405 466 16,900 -2,040 Descending FlightAware
11:49AM 26.7920 -79.6950 166° South 395 455 15,600 -1,980 Descending FlightAware
11:49AM 26.7580 -79.6890 171° South 388 447 15,000 -1,620 Descending FlightAware
11:50AM 26.6660 -79.7240 199° South 365 420 13,600 -2,400 Descending FlightAware
11:51AM 26.5810 -79.7640 203° Southwest 335 386 10,600 -2,400 Descending FlightAware
11:52AM 26.5290 -79.7890 203° Southwest 290 334 9,800 -1,860 Descending FlightAware
11:52AM 26.4890 -79.8080 203° Southwest 289 333 8,400 -1,860 Descending FlightAware
11:53AM 26.4480 -79.8270 203° Southwest 286 329 7,800 -480 Descending FlightAware
11:53AM 26.3890 -79.8550 203° Southwest 288 331 7,800  Level FlightAware
11:54AM 26.3530 -79.8880 219° Southwest 285 328 7,800  Level FlightAware
11:55AM 26.3160 -79.9220 219° Southwest 289 333 7,800  Level FlightAware
11:55AM 26.2940 -79.9440 222° Southwest 289 333 7,800 -780 Level FlightAware
11:55AM 26.2680 -79.9690 221° Southwest 289 333 7,200 -1,500 Descending FlightAware
11:56AM 26.2350 -80.0000 220° Southwest 285 328 6,400 -1,260 Descending FlightAware
11:57AM 26.2040 -80.0300 221° Southwest 277 319 5,900 -540 Descending FlightAware
11:57AM 26.1840 -80.0610 234° Southwest 249 287 5,900  Level FlightAware
11:57AM 26.1830 -80.0820 267° West 240 276 5,900  Level FlightAware
11:58AM 26.1790 -80.1280 264° West 234 269 5,900 -240 Level FlightAware
11:59AM 26.1720 -80.1810 262° West 238 274 5,600 -780 Descending FlightAware
11:59AM 26.1620 -80.2190 254° West 237 273 4,900 -1,200 Descending FlightAware
12:00PM 26.1560 -80.2550 259° West 231 266 4,400 -840 Descending FlightAware
12:00PM 26.1510 -80.2910 261° West 214 246 4,100 -480 Descending FlightAware
12:01PM 26.1460 -80.3250 261° West 203 234 3,900 -360 Descending FlightAware
12:01PM 26.1390 -80.3680 260° West 198 228 3,700 -780 Descending FlightAware
12:02PM 26.1180 -80.4040 237° Southwest 204 235 2,800 -1,200 Descending FlightAware
12:03PM 26.0870 -80.3960 167° South 192 221 2,100 -1,080 Descending FlightAware
12:03PM 26.0790 -80.3790 118° Southeast 172 198 1,800 -420 Descending FlightAware
12:04PM 26.0790 -80.3580 90° East 173 199 1,800  Level FlightAware
12:04PM 26.0780 -80.3290 92° East 174 200 1,800  Level FlightAware
12:05PM 26.0780 -80.3070 90° East 171 197 1,800  Level FlightAware
12:05PM 26.0780 -80.2770 90° East 177 204 1,800 -540 Level FlightAware
12:06PM 26.0770 -80.2480 92° East 155 178 1,200 -840 Descending FlightAware
12:06PM 26.0770 -80.2240 90° East 139 160 900 -660 Descending FlightAware
12:07PM 26.0770 -80.2080 90° East 131 151 600 -660 Descending FlightAware
12:07PM 26.0770 -80.1740 90° East 134 154 100 -420 Descending FlightAware
12:08PM 26.0770 -80.1570 90° East 134 154 100  Level FlightAware
12:14PM 26.0667 -80.1500 103° East  Level FlightAware Approximate
12:15PM 26.0726 -80.1527 103° East  Level Estimated
12:16PM 26.0667 -80.1500 103° East  Level FlightAware Approximate